sensor_id;sensor_type;location;lat;lon;timestamp;P1;durP1;ratioP1;P2;durP2;ratioP2
819;SDS011;392;48.838;2.322;2023-10-08T00:02:09;13.57;;;11.40;;
819;SDS011;392;48.838;2.322;2023-10-08T00:04:41;13.70;;;12.40;;
819;SDS011;392;48.838;2.322;2023-10-08T00:07:09;16.20;;;13.97;;
819;SDS011;392;48.838;2.322;2023-10-08T00:09:37;13.50;;;12.10;;
819;SDS011;392;48.838;2.322;2023-10-08T00:12:04;14.93;;;13.33;;
819;SDS011;392;48.838;2.322;2023-10-08T00:14:33;14.97;;;12.80;;
819;SDS011;392;48.838;2.322;2023-10-08T00:17:10;13.70;;;12.30;;
819;SDS011;392;48.838;2.322;2023-10-08T00:19:38;14.33;;;12.07;;
819;SDS011;392;48.838;2.322;2023-10-08T00:22:08;16.13;;;13.57;;
819;SDS011;392;48.838;2.322;2023-10-08T00:24:39;17.63;;;12.93;;
819;SDS011;392;48.838;2.322;2023-10-08T00:27:07;13.53;;;11.20;;
819;SDS011;392;48.838;2.322;2023-10-08T00:29:35;12.20;;;11.00;;
819;SDS011;392;48.838;2.322;2023-10-08T00:32:05;12.60;;;11.30;;
819;SDS011;392;48.838;2.322;2023-10-08T00:34:38;12.30;;;11.10;;
819;SDS011;392;48.838;2.322;2023-10-08T00:37:08;13.23;;;11.90;;
819;SDS011;392;48.838;2.322;2023-10-08T00:39:39;15.90;;;12.80;;
819;SDS011;392;48.838;2.322;2023-10-08T00:42:07;15.03;;;12.10;;
819;SDS011;392;48.838;2.322;2023-10-08T00:44:35;14.87;;;13.37;;
819;SDS011;392;48.838;2.322;2023-10-08T00:47:12;15.90;;;13.93;;
819;SDS011;392;48.838;2.322;2023-10-08T00:49:44;14.70;;;13.13;;
819;SDS011;392;48.838;2.322;2023-10-08T00:52:20;18.63;;;13.83;;
819;SDS011;392;48.838;2.322;2023-10-08T00:54:55;16.10;;;13.90;;
819;SDS011;392;48.838;2.322;2023-10-08T00:57:34;14.50;;;12.40;;
819;SDS011;392;48.838;2.322;2023-10-08T01:00:07;15.17;;;13.27;;
819;SDS011;392;48.838;2.322;2023-10-08T01:02:43;15.57;;;12.87;;
819;SDS011;392;48.838;2.322;2023-10-08T01:05:15;15.43;;;13.50;;
819;SDS011;392;48.838;2.322;2023-10-08T01:07:49;15.07;;;12.20;;
819;SDS011;392;48.838;2.322;2023-10-08T01:10:17;17.60;;;12.87;;
819;SDS011;392;48.838;2.322;2023-10-08T01:12:46;14.30;;;12.87;;
819;SDS011;392;48.838;2.322;2023-10-08T01:15:31;16.40;;;12.70;;
819;SDS011;392;48.838;2.322;2023-10-08T01:18:01;15.60;;;14.00;;
819;SDS011;392;48.838;2.322;2023-10-08T01:20:31;14.90;;;13.33;;
819;SDS011;392;48.838;2.322;2023-10-08T01:23:05;14.17;;;12.60;;
819;SDS011;392;48.838;2.322;2023-10-08T01:25:38;13.80;;;12.40;;
819;SDS011;392;48.838;2.322;2023-10-08T01:28:07;15.40;;;13.77;;
819;SDS011;392;48.838;2.322;2023-10-08T01:30:43;16.53;;;13.10;;
819;SDS011;392;48.838;2.322;2023-10-08T01:33:12;14.37;;;12.87;;
819;SDS011;392;48.838;2.322;2023-10-08T01:35:41;12.80;;;11.50;;
819;SDS011;392;48.838;2.322;2023-10-08T01:38:10;13.27;;;11.73;;
819;SDS011;392;48.838;2.322;2023-10-08T01:40:40;14.27;;;11.60;;
819;SDS011;392;48.838;2.322;2023-10-08T01:43:07;12.70;;;11.37;;
819;SDS011;392;48.838;2.322;2023-10-08T01:45:36;14.57;;;11.03;;
819;SDS011;392;48.838;2.322;2023-10-08T01:48:06;13.60;;;10.13;;
819;SDS011;392;48.838;2.322;2023-10-08T01:50:36;12.70;;;10.20;;
819;SDS011;392;48.838;2.322;2023-10-08T01:53:04;11.63;;;10.30;;
819;SDS011;392;48.838;2.322;2023-10-08T01:55:37;10.70;;;9.60;;
819;SDS011;392;48.838;2.322;2023-10-08T01:58:15;11.40;;;10.20;;
819;SDS011;392;48.838;2.322;2023-10-08T02:00:43;12.43;;;9.73;;
819;SDS011;392;48.838;2.322;2023-10-08T02:03:13;11.20;;;10.13;;
819;SDS011;392;48.838;2.322;2023-10-08T02:05:43;13.53;;;10.37;;
819;SDS011;392;48.838;2.322;2023-10-08T02:08:11;11.33;;;9.57;;
819;SDS011;392;48.838;2.322;2023-10-08T02:10:43;12.70;;;10.10;;
819;SDS011;392;48.838;2.322;2023-10-08T02:13:12;10.97;;;9.87;;
819;SDS011;392;48.838;2.322;2023-10-08T02:15:43;10.43;;;9.00;;
819;SDS011;392;48.838;2.322;2023-10-08T02:18:12;10.43;;;9.40;;
819;SDS011;392;48.838;2.322;2023-10-08T02:20:40;11.87;;;10.33;;
819;SDS011;392;48.838;2.322;2023-10-08T02:23:08;11.00;;;9.57;;
819;SDS011;392;48.838;2.322;2023-10-08T02:25:37;12.73;;;11.30;;
819;SDS011;392;48.838;2.322;2023-10-08T02:28:07;14.40;;;10.43;;
819;SDS011;392;48.838;2.322;2023-10-08T02:30:35;14.80;;;11.07;;
819;SDS011;392;48.838;2.322;2023-10-08T02:33:04;13.70;;;11.87;;
819;SDS011;392;48.838;2.322;2023-10-08T02:35:40;13.40;;;12.10;;
819;SDS011;392;48.838;2.322;2023-10-08T02:38:09;13.73;;;12.00;;
819;SDS011;392;48.838;2.322;2023-10-08T02:40:38;15.00;;;12.33;;
819;SDS011;392;48.838;2.322;2023-10-08T02:43:11;14.10;;;11.63;;
819;SDS011;392;48.838;2.322;2023-10-08T02:45:40;12.30;;;10.93;;
819;SDS011;392;48.838;2.322;2023-10-08T02:48:12;12.00;;;10.50;;
819;SDS011;392;48.838;2.322;2023-10-08T02:50:41;12.50;;;10.63;;
819;SDS011;392;48.838;2.322;2023-10-08T02:53:09;12.10;;;10.87;;
819;SDS011;392;48.838;2.322;2023-10-08T02:55:37;15.03;;;10.77;;
819;SDS011;392;48.838;2.322;2023-10-08T02:58:09;10.80;;;9.13;;
819;SDS011;392;48.838;2.322;2023-10-08T03:00:40;9.87;;;8.50;;
819;SDS011;392;48.838;2.322;2023-10-08T03:03:08;9.93;;;8.93;;
819;SDS011;392;48.838;2.322;2023-10-08T03:05:41;9.73;;;8.40;;
819;SDS011;392;48.838;2.322;2023-10-08T03:08:12;11.10;;;8.90;;
819;SDS011;392;48.838;2.322;2023-10-08T03:10:44;15.00;;;10.10;;
819;SDS011;392;48.838;2.322;2023-10-08T03:13:15;10.27;;;8.70;;
819;SDS011;392;48.838;2.322;2023-10-08T03:15:44;12.37;;;9.90;;
819;SDS011;392;48.838;2.322;2023-10-08T03:18:33;11.20;;;10.00;;
819;SDS011;392;48.838;2.322;2023-10-08T03:21:02;10.30;;;9.20;;
819;SDS011;392;48.838;2.322;2023-10-08T03:23:30;15.70;;;11.10;;
819;SDS011;392;48.838;2.322;2023-10-08T03:26:00;11.83;;;10.23;;
819;SDS011;392;48.838;2.322;2023-10-08T03:28:38;13.20;;;10.00;;
819;SDS011;392;48.838;2.322;2023-10-08T03:31:06;14.27;;;9.70;;
819;SDS011;392;48.838;2.322;2023-10-08T03:33:42;13.23;;;10.03;;
819;SDS011;392;48.838;2.322;2023-10-08T03:36:14;10.43;;;9.30;;
819;SDS011;392;48.838;2.322;2023-10-08T03:38:47;11.37;;;9.20;;
819;SDS011;392;48.838;2.322;2023-10-08T03:41:17;12.03;;;8.63;;
819;SDS011;392;48.838;2.322;2023-10-08T03:43:54;9.07;;;8.13;;
819;SDS011;392;48.838;2.322;2023-10-08T03:46:27;9.20;;;8.17;;
819;SDS011;392;48.838;2.322;2023-10-08T03:48:55;8.10;;;7.23;;
819;SDS011;392;48.838;2.322;2023-10-08T03:51:29;7.83;;;7.03;;
819;SDS011;392;48.838;2.322;2023-10-08T03:54:00;8.23;;;7.30;;
819;SDS011;392;48.838;2.322;2023-10-08T03:56:41;9.63;;;7.90;;
819;SDS011;392;48.838;2.322;2023-10-08T03:59:15;7.70;;;6.50;;
819;SDS011;392;48.838;2.322;2023-10-08T04:01:55;7.47;;;6.23;;
819;SDS011;392;48.838;2.322;2023-10-08T04:04:34;7.20;;;6.50;;
819;SDS011;392;48.838;2.322;2023-10-08T04:07:16;7.53;;;6.70;;
819;SDS011;392;48.838;2.322;2023-10-08T04:10:05;8.63;;;7.47;;
819;SDS011;392;48.838;2.322;2023-10-08T04:13:04;7.67;;;6.90;;
819;SDS011;392;48.838;2.322;2023-10-08T04:15:35;8.70;;;7.87;;
819;SDS011;392;48.838;2.322;2023-10-08T04:18:05;8.90;;;8.00;;
819;SDS011;392;48.838;2.322;2023-10-08T04:20:33;9.00;;;8.00;;
819;SDS011;392;48.838;2.322;2023-10-08T04:23:04;9.63;;;8.63;;
819;SDS011;392;48.838;2.322;2023-10-08T04:25:39;9.60;;;7.80;;
819;SDS011;392;48.838;2.322;2023-10-08T04:28:08;12.43;;;7.90;;
819;SDS011;392;48.838;2.322;2023-10-08T04:30:40;8.40;;;7.53;;
819;SDS011;392;48.838;2.322;2023-10-08T04:33:10;8.50;;;7.33;;
819;SDS011;392;48.838;2.322;2023-10-08T04:35:40;9.03;;;7.70;;
819;SDS011;392;48.838;2.322;2023-10-08T04:38:13;10.40;;;9.30;;
819;SDS011;392;48.838;2.322;2023-10-08T04:40:43;9.80;;;7.90;;
819;SDS011;392;48.838;2.322;2023-10-08T04:43:14;10.20;;;8.80;;
819;SDS011;392;48.838;2.322;2023-10-08T04:45:49;10.77;;;9.67;;
819;SDS011;392;48.838;2.322;2023-10-08T04:48:16;15.20;;;10.60;;
819;SDS011;392;48.838;2.322;2023-10-08T04:50:46;13.83;;;9.97;;
819;SDS011;392;48.838;2.322;2023-10-08T04:53:24;11.57;;;10.00;;
819;SDS011;392;48.838;2.322;2023-10-08T04:55:58;10.63;;;9.13;;
819;SDS011;392;48.838;2.322;2023-10-08T04:58:31;10.43;;;9.33;;
819;SDS011;392;48.838;2.322;2023-10-08T05:01:03;11.03;;;9.20;;
819;SDS011;392;48.838;2.322;2023-10-08T05:03:54;12.80;;;9.40;;
819;SDS011;392;48.838;2.322;2023-10-08T05:06:49;10.93;;;9.70;;
819;SDS011;392;48.838;2.322;2023-10-08T05:09:43;11.17;;;9.97;;
819;SDS011;392;48.838;2.322;2023-10-08T05:12:37;11.17;;;9.30;;
819;SDS011;392;48.838;2.322;2023-10-08T05:15:11;13.20;;;10.00;;
819;SDS011;392;48.838;2.322;2023-10-08T05:17:59;13.57;;;10.43;;
819;SDS011;392;48.838;2.322;2023-10-08T05:20:38;13.27;;;10.30;;
819;SDS011;392;48.838;2.322;2023-10-08T05:23:24;13.93;;;10.30;;
819;SDS011;392;48.838;2.322;2023-10-08T05:26:35;11.17;;;9.83;;
819;SDS011;392;48.838;2.322;2023-10-08T05:29:09;12.20;;;10.13;;
819;SDS011;392;48.838;2.322;2023-10-08T05:32:15;11.77;;;10.30;;
819;SDS011;392;48.838;2.322;2023-10-08T05:35:11;11.73;;;10.00;;
819;SDS011;392;48.838;2.322;2023-10-08T05:37:57;11.77;;;10.57;;
819;SDS011;392;48.838;2.322;2023-10-08T05:40:39;12.40;;;10.87;;
819;SDS011;392;48.838;2.322;2023-10-08T05:43:24;15.43;;;12.20;;
819;SDS011;392;48.838;2.322;2023-10-08T05:46:14;15.63;;;11.00;;
819;SDS011;392;48.838;2.322;2023-10-08T05:49:05;15.07;;;11.53;;
819;SDS011;392;48.838;2.322;2023-10-08T05:51:53;11.63;;;10.43;;
819;SDS011;392;48.838;2.322;2023-10-08T05:54:39;13.10;;;11.40;;
819;SDS011;392;48.838;2.322;2023-10-08T05:57:33;14.43;;;11.20;;
819;SDS011;392;48.838;2.322;2023-10-08T06:00:11;14.20;;;11.60;;
819;SDS011;392;48.838;2.322;2023-10-08T06:02:55;15.27;;;12.27;;
819;SDS011;392;48.838;2.322;2023-10-08T06:05:47;14.03;;;11.53;;
819;SDS011;392;48.838;2.322;2023-10-08T06:08:34;15.30;;;11.23;;
819;SDS011;392;48.838;2.322;2023-10-08T06:11:15;11.83;;;10.43;;
819;SDS011;392;48.838;2.322;2023-10-08T06:13:53;12.73;;;10.40;;
819;SDS011;392;48.838;2.322;2023-10-08T06:16:25;11.80;;;10.33;;
819;SDS011;392;48.838;2.322;2023-10-08T06:19:09;11.57;;;10.20;;
819;SDS011;392;48.838;2.322;2023-10-08T06:21:37;12.10;;;9.87;;
819;SDS011;392;48.838;2.322;2023-10-08T06:24:08;11.60;;;9.60;;
819;SDS011;392;48.838;2.322;2023-10-08T06:26:37;11.87;;;10.43;;
819;SDS011;392;48.838;2.322;2023-10-08T06:29:08;11.63;;;10.33;;
819;SDS011;392;48.838;2.322;2023-10-08T06:31:51;15.63;;;11.30;;
819;SDS011;392;48.838;2.322;2023-10-08T06:34:20;12.00;;;9.27;;
819;SDS011;392;48.838;2.322;2023-10-08T06:36:50;11.53;;;9.77;;
819;SDS011;392;48.838;2.322;2023-10-08T06:39:21;16.03;;;11.00;;
819;SDS011;392;48.838;2.322;2023-10-08T06:41:52;12.00;;;9.60;;
819;SDS011;392;48.838;2.322;2023-10-08T06:44:19;11.90;;;10.57;;
819;SDS011;392;48.838;2.322;2023-10-08T06:46:46;14.87;;;10.70;;
819;SDS011;392;48.838;2.322;2023-10-08T06:49:17;12.03;;;10.03;;
819;SDS011;392;48.838;2.322;2023-10-08T06:51:49;12.27;;;10.10;;
819;SDS011;392;48.838;2.322;2023-10-08T06:54:17;15.47;;;10.80;;
819;SDS011;392;48.838;2.322;2023-10-08T06:56:46;13.27;;;11.03;;
819;SDS011;392;48.838;2.322;2023-10-08T06:59:17;12.10;;;10.67;;
819;SDS011;392;48.838;2.322;2023-10-08T07:01:47;13.57;;;11.20;;
819;SDS011;392;48.838;2.322;2023-10-08T07:04:16;14.90;;;11.40;;
819;SDS011;392;48.838;2.322;2023-10-08T07:06:47;11.70;;;10.50;;
819;SDS011;392;48.838;2.322;2023-10-08T07:09:16;15.23;;;10.90;;
819;SDS011;392;48.838;2.322;2023-10-08T07:11:55;11.00;;;9.90;;
819;SDS011;392;48.838;2.322;2023-10-08T07:14:24;14.30;;;10.73;;
819;SDS011;392;48.838;2.322;2023-10-08T07:16:53;12.70;;;10.77;;
819;SDS011;392;48.838;2.322;2023-10-08T07:19:24;12.63;;;11.30;;
819;SDS011;392;48.838;2.322;2023-10-08T07:21:58;14.40;;;10.97;;
819;SDS011;392;48.838;2.322;2023-10-08T07:24:30;14.60;;;11.03;;
819;SDS011;392;48.838;2.322;2023-10-08T07:27:02;14.03;;;11.10;;
819;SDS011;392;48.838;2.322;2023-10-08T07:29:34;12.37;;;11.07;;
819;SDS011;392;48.838;2.322;2023-10-08T07:32:02;12.90;;;11.30;;
819;SDS011;392;48.838;2.322;2023-10-08T07:34:35;11.87;;;10.57;;
819;SDS011;392;48.838;2.322;2023-10-08T07:37:02;12.70;;;11.37;;
819;SDS011;392;48.838;2.322;2023-10-08T07:39:31;17.40;;;10.80;;
819;SDS011;392;48.838;2.322;2023-10-08T07:42:10;12.20;;;10.13;;
819;SDS011;392;48.838;2.322;2023-10-08T07:44:38;13.53;;;11.67;;
819;SDS011;392;48.838;2.322;2023-10-08T07:47:06;14.37;;;11.10;;
819;SDS011;392;48.838;2.322;2023-10-08T07:49:39;13.17;;;11.73;;
819;SDS011;392;48.838;2.322;2023-10-08T07:52:09;14.60;;;12.10;;
819;SDS011;392;48.838;2.322;2023-10-08T07:54:40;12.43;;;10.67;;
819;SDS011;392;48.838;2.322;2023-10-08T07:57:08;13.67;;;10.70;;
819;SDS011;392;48.838;2.322;2023-10-08T07:59:41;14.50;;;11.10;;
819;SDS011;392;48.838;2.322;2023-10-08T08:02:12;14.60;;;11.13;;
819;SDS011;392;48.838;2.322;2023-10-08T08:04:42;13.27;;;11.10;;
819;SDS011;392;48.838;2.322;2023-10-08T08:07:10;13.63;;;11.53;;
819;SDS011;392;48.838;2.322;2023-10-08T08:09:41;13.50;;;11.90;;
819;SDS011;392;48.838;2.322;2023-10-08T08:12:17;15.77;;;12.20;;
819;SDS011;392;48.838;2.322;2023-10-08T08:14:44;12.47;;;11.00;;
819;SDS011;392;48.838;2.322;2023-10-08T08:17:13;13.33;;;11.17;;
819;SDS011;392;48.838;2.322;2023-10-08T08:19:41;11.67;;;10.50;;
819;SDS011;392;48.838;2.322;2023-10-08T08:22:09;12.97;;;10.03;;
819;SDS011;392;48.838;2.322;2023-10-08T08:24:40;11.23;;;10.13;;
819;SDS011;392;48.838;2.322;2023-10-08T08:27:10;11.77;;;10.50;;
819;SDS011;392;48.838;2.322;2023-10-08T08:29:50;12.57;;;11.07;;
819;SDS011;392;48.838;2.322;2023-10-08T08:32:21;12.87;;;11.50;;
819;SDS011;392;48.838;2.322;2023-10-08T08:34:49;12.73;;;11.47;;
819;SDS011;392;48.838;2.322;2023-10-08T08:37:17;13.37;;;11.60;;
819;SDS011;392;48.838;2.322;2023-10-08T08:39:47;15.93;;;11.80;;
819;SDS011;392;48.838;2.322;2023-10-08T08:42:15;11.37;;;10.20;;
819;SDS011;392;48.838;2.322;2023-10-08T08:44:44;13.03;;;11.73;;
819;SDS011;392;48.838;2.322;2023-10-08T08:47:14;10.57;;;9.37;;
819;SDS011;392;48.838;2.322;2023-10-08T08:49:43;10.47;;;8.07;;
819;SDS011;392;48.838;2.322;2023-10-08T08:52:11;10.80;;;9.20;;
819;SDS011;392;48.838;2.322;2023-10-08T08:54:38;9.97;;;8.93;;
819;SDS011;392;48.838;2.322;2023-10-08T08:57:07;10.03;;;8.73;;
819;SDS011;392;48.838;2.322;2023-10-08T08:59:39;10.80;;;8.97;;
819;SDS011;392;48.838;2.322;2023-10-08T09:02:10;9.23;;;8.10;;
819;SDS011;392;48.838;2.322;2023-10-08T09:04:43;10.33;;;7.90;;
819;SDS011;392;48.838;2.322;2023-10-08T09:07:12;8.50;;;6.90;;
819;SDS011;392;48.838;2.322;2023-10-08T09:09:39;8.83;;;7.90;;
819;SDS011;392;48.838;2.322;2023-10-08T09:12:08;9.30;;;7.90;;
819;SDS011;392;48.838;2.322;2023-10-08T09:14:36;8.30;;;7.20;;
819;SDS011;392;48.838;2.322;2023-10-08T09:17:04;9.53;;;7.50;;
819;SDS011;392;48.838;2.322;2023-10-08T09:19:36;12.30;;;9.17;;
819;SDS011;392;48.838;2.322;2023-10-08T09:22:05;7.60;;;6.67;;
819;SDS011;392;48.838;2.322;2023-10-08T09:24:37;6.80;;;6.20;;
819;SDS011;392;48.838;2.322;2023-10-08T09:27:06;7.87;;;6.40;;
819;SDS011;392;48.838;2.322;2023-10-08T09:29:34;8.80;;;7.30;;
819;SDS011;392;48.838;2.322;2023-10-08T09:32:05;6.33;;;5.73;;
819;SDS011;392;48.838;2.322;2023-10-08T09:34:36;6.77;;;5.63;;
819;SDS011;392;48.838;2.322;2023-10-08T09:37:03;6.47;;;5.00;;
819;SDS011;392;48.838;2.322;2023-10-08T09:39:33;7.03;;;6.33;;
819;SDS011;392;48.838;2.322;2023-10-08T09:42:00;9.33;;;6.80;;
819;SDS011;392;48.838;2.322;2023-10-08T09:44:29;9.27;;;6.70;;
819;SDS011;392;48.838;2.322;2023-10-08T09:46:59;9.23;;;7.10;;
819;SDS011;392;48.838;2.322;2023-10-08T09:49:31;8.80;;;5.97;;
819;SDS011;392;48.838;2.322;2023-10-08T09:52:02;7.27;;;6.33;;
819;SDS011;392;48.838;2.322;2023-10-08T09:54:33;8.00;;;7.20;;
819;SDS011;392;48.838;2.322;2023-10-08T09:57:09;6.87;;;5.73;;
819;SDS011;392;48.838;2.322;2023-10-08T09:59:37;7.23;;;6.10;;
819;SDS011;392;48.838;2.322;2023-10-08T10:02:07;7.10;;;6.00;;
819;SDS011;392;48.838;2.322;2023-10-08T10:04:35;7.33;;;6.60;;
819;SDS011;392;48.838;2.322;2023-10-08T10:07:10;7.40;;;6.63;;
819;SDS011;392;48.838;2.322;2023-10-08T10:09:42;5.43;;;4.93;;
819;SDS011;392;48.838;2.322;2023-10-08T10:12:12;6.33;;;5.70;;
819;SDS011;392;48.838;2.322;2023-10-08T10:14:51;7.57;;;6.33;;
819;SDS011;392;48.838;2.322;2023-10-08T10:17:21;8.60;;;7.10;;
819;SDS011;392;48.838;2.322;2023-10-08T10:19:53;6.67;;;6.00;;
819;SDS011;392;48.838;2.322;2023-10-08T10:22:29;6.60;;;6.10;;
819;SDS011;392;48.838;2.322;2023-10-08T10:24:58;8.07;;;6.27;;
819;SDS011;392;48.838;2.322;2023-10-08T10:27:29;7.37;;;5.30;;
819;SDS011;392;48.838;2.322;2023-10-08T10:30:03;6.63;;;5.53;;
819;SDS011;392;48.838;2.322;2023-10-08T10:32:33;6.77;;;5.37;;
819;SDS011;392;48.838;2.322;2023-10-08T10:35:01;7.23;;;6.50;;
819;SDS011;392;48.838;2.322;2023-10-08T10:37:32;5.93;;;5.40;;
819;SDS011;392;48.838;2.322;2023-10-08T10:40:07;7.80;;;6.27;;
819;SDS011;392;48.838;2.322;2023-10-08T10:42:38;6.67;;;6.00;;
819;SDS011;392;48.838;2.322;2023-10-08T10:45:13;8.73;;;6.30;;
819;SDS011;392;48.838;2.322;2023-10-08T10:48:00;7.53;;;6.50;;
819;SDS011;392;48.838;2.322;2023-10-08T10:50:38;7.00;;;6.37;;
819;SDS011;392;48.838;2.322;2023-10-08T10:53:17;6.30;;;5.70;;
819;SDS011;392;48.838;2.322;2023-10-08T10:55:44;6.73;;;6.03;;
819;SDS011;392;48.838;2.322;2023-10-08T10:58:24;7.10;;;5.90;;
819;SDS011;392;48.838;2.322;2023-10-08T11:00:50;7.00;;;6.30;;
819;SDS011;392;48.838;2.322;2023-10-08T11:03:24;7.37;;;6.30;;
819;SDS011;392;48.838;2.322;2023-10-08T11:05:55;8.13;;;7.33;;
819;SDS011;392;48.838;2.322;2023-10-08T11:08:32;6.73;;;6.10;;
819;SDS011;392;48.838;2.322;2023-10-08T11:11:03;6.43;;;5.80;;
819;SDS011;392;48.838;2.322;2023-10-08T11:13:35;8.23;;;7.43;;
819;SDS011;392;48.838;2.322;2023-10-08T11:16:05;7.30;;;6.57;;
819;SDS011;392;48.838;2.322;2023-10-08T11:18:34;10.73;;;8.07;;
819;SDS011;392;48.838;2.322;2023-10-08T11:21:06;10.60;;;6.87;;
819;SDS011;392;48.838;2.322;2023-10-08T11:23:42;8.33;;;7.50;;
819;SDS011;392;48.838;2.322;2023-10-08T11:26:17;8.10;;;7.30;;
819;SDS011;392;48.838;2.322;2023-10-08T11:28:47;8.30;;;7.60;;
819;SDS011;392;48.838;2.322;2023-10-08T11:31:14;8.60;;;7.83;;
819;SDS011;392;48.838;2.322;2023-10-08T11:33:45;9.73;;;8.90;;
819;SDS011;392;48.838;2.322;2023-10-08T11:36:19;9.53;;;8.63;;
819;SDS011;392;48.838;2.322;2023-10-08T11:38:54;10.17;;;9.37;;
819;SDS011;392;48.838;2.322;2023-10-08T11:41:27;10.03;;;9.33;;
819;SDS011;392;48.838;2.322;2023-10-08T11:44:09;11.93;;;11.03;;
819;SDS011;392;48.838;2.322;2023-10-08T11:46:38;13.30;;;12.17;;
819;SDS011;392;48.838;2.322;2023-10-08T11:49:06;13.07;;;11.97;;
819;SDS011;392;48.838;2.322;2023-10-08T11:51:37;13.10;;;11.83;;
819;SDS011;392;48.838;2.322;2023-10-08T11:54:06;12.03;;;11.13;;
819;SDS011;392;48.838;2.322;2023-10-08T11:56:37;12.77;;;11.87;;
819;SDS011;392;48.838;2.322;2023-10-08T11:59:05;15.70;;;14.50;;
819;SDS011;392;48.838;2.322;2023-10-08T12:01:34;15.23;;;14.33;;
819;SDS011;392;48.838;2.322;2023-10-08T12:04:03;16.23;;;15.27;;
819;SDS011;392;48.838;2.322;2023-10-08T12:06:37;17.20;;;15.83;;
819;SDS011;392;48.838;2.322;2023-10-08T12:09:08;15.27;;;14.07;;
819;SDS011;392;48.838;2.322;2023-10-08T12:11:38;16.53;;;15.30;;
819;SDS011;392;48.838;2.322;2023-10-08T12:14:05;16.43;;;15.33;;
819;SDS011;392;48.838;2.322;2023-10-08T12:16:33;14.90;;;14.10;;
819;SDS011;392;48.838;2.322;2023-10-08T12:19:02;18.13;;;16.93;;
819;SDS011;392;48.838;2.322;2023-10-08T12:21:41;18.73;;;17.50;;
819;SDS011;392;48.838;2.322;2023-10-08T12:24:13;18.40;;;17.10;;
819;SDS011;392;48.838;2.322;2023-10-08T12:26:40;16.00;;;14.77;;
819;SDS011;392;48.838;2.322;2023-10-08T12:29:11;16.17;;;14.83;;
819;SDS011;392;48.838;2.322;2023-10-08T12:31:39;16.43;;;15.63;;
819;SDS011;392;48.838;2.322;2023-10-08T12:34:06;16.67;;;15.77;;
819;SDS011;392;48.838;2.322;2023-10-08T12:36:37;16.97;;;15.97;;
819;SDS011;392;48.838;2.322;2023-10-08T12:39:04;18.50;;;17.50;;
819;SDS011;392;48.838;2.322;2023-10-08T12:41:41;19.70;;;18.60;;
819;SDS011;392;48.838;2.322;2023-10-08T12:44:09;19.30;;;18.20;;
819;SDS011;392;48.838;2.322;2023-10-08T12:46:36;19.13;;;17.80;;
819;SDS011;392;48.838;2.322;2023-10-08T12:49:04;15.90;;;15.10;;
819;SDS011;392;48.838;2.322;2023-10-08T12:51:32;17.43;;;16.33;;
819;SDS011;392;48.838;2.322;2023-10-08T12:54:00;18.33;;;17.17;;
819;SDS011;392;48.838;2.322;2023-10-08T12:56:32;18.17;;;16.97;;
819;SDS011;392;48.838;2.322;2023-10-08T12:59:11;17.37;;;16.40;;
819;SDS011;392;48.838;2.322;2023-10-08T13:01:45;18.30;;;17.33;;
819;SDS011;392;48.838;2.322;2023-10-08T13:04:16;18.37;;;17.20;;
819;SDS011;392;48.838;2.322;2023-10-08T13:06:51;21.70;;;19.87;;
819;SDS011;392;48.838;2.322;2023-10-08T13:09:22;18.40;;;17.03;;
819;SDS011;392;48.838;2.322;2023-10-08T13:11:49;18.93;;;17.93;;
819;SDS011;392;48.838;2.322;2023-10-08T13:14:18;17.90;;;16.70;;
819;SDS011;392;48.838;2.322;2023-10-08T13:16:47;17.47;;;16.50;;
819;SDS011;392;48.838;2.322;2023-10-08T13:19:19;15.30;;;14.50;;
819;SDS011;392;48.838;2.322;2023-10-08T13:21:48;16.07;;;15.00;;
819;SDS011;392;48.838;2.322;2023-10-08T13:24:17;16.70;;;15.50;;
819;SDS011;392;48.838;2.322;2023-10-08T13:26:45;17.63;;;16.23;;
819;SDS011;392;48.838;2.322;2023-10-08T13:29:13;14.97;;;13.90;;
819;SDS011;392;48.838;2.322;2023-10-08T13:31:42;17.13;;;15.57;;
819;SDS011;392;48.838;2.322;2023-10-08T13:34:11;14.30;;;13.30;;
819;SDS011;392;48.838;2.322;2023-10-08T13:36:41;13.53;;;12.60;;
819;SDS011;392;48.838;2.322;2023-10-08T13:39:12;14.90;;;14.00;;
819;SDS011;392;48.838;2.322;2023-10-08T13:41:43;13.07;;;11.97;;
819;SDS011;392;48.838;2.322;2023-10-08T13:44:13;12.53;;;11.57;;
819;SDS011;392;48.838;2.322;2023-10-08T13:46:40;12.47;;;11.47;;
819;SDS011;392;48.838;2.322;2023-10-08T13:49:14;12.90;;;11.80;;
819;SDS011;392;48.838;2.322;2023-10-08T13:51:41;11.80;;;10.90;;
819;SDS011;392;48.838;2.322;2023-10-08T13:54:09;12.87;;;11.53;;
819;SDS011;392;48.838;2.322;2023-10-08T13:56:36;11.40;;;10.23;;
819;SDS011;392;48.838;2.322;2023-10-08T13:59:04;11.27;;;10.30;;
819;SDS011;392;48.838;2.322;2023-10-08T14:01:37;11.13;;;10.17;;
819;SDS011;392;48.838;2.322;2023-10-08T14:04:10;10.23;;;9.43;;
819;SDS011;392;48.838;2.322;2023-10-08T14:06:38;9.87;;;8.87;;
819;SDS011;392;48.838;2.322;2023-10-08T14:09:08;9.20;;;8.50;;
819;SDS011;392;48.838;2.322;2023-10-08T14:11:37;9.30;;;8.60;;
819;SDS011;392;48.838;2.322;2023-10-08T14:14:05;9.87;;;9.10;;
819;SDS011;392;48.838;2.322;2023-10-08T14:16:36;9.43;;;8.67;;
819;SDS011;392;48.838;2.322;2023-10-08T14:19:07;8.77;;;7.97;;
819;SDS011;392;48.838;2.322;2023-10-08T14:21:39;8.30;;;7.60;;
819;SDS011;392;48.838;2.322;2023-10-08T14:24:15;7.97;;;7.27;;
819;SDS011;392;48.838;2.322;2023-10-08T14:26:43;14.00;;;8.80;;
819;SDS011;392;48.838;2.322;2023-10-08T14:29:17;6.80;;;6.20;;
819;SDS011;392;48.838;2.322;2023-10-08T14:31:44;7.50;;;6.80;;
819;SDS011;392;48.838;2.322;2023-10-08T14:34:14;7.27;;;6.47;;
819;SDS011;392;48.838;2.322;2023-10-08T14:37:09;7.23;;;6.70;;
819;SDS011;392;48.838;2.322;2023-10-08T14:39:54;8.90;;;6.50;;
819;SDS011;392;48.838;2.322;2023-10-08T14:42:39;9.80;;;8.30;;
819;SDS011;392;48.838;2.322;2023-10-08T14:45:22;7.43;;;6.70;;
819;SDS011;392;48.838;2.322;2023-10-08T14:47:52;8.40;;;7.00;;
819;SDS011;392;48.838;2.322;2023-10-08T14:50:21;8.00;;;6.77;;
819;SDS011;392;48.838;2.322;2023-10-08T14:52:50;7.30;;;6.60;;
819;SDS011;392;48.838;2.322;2023-10-08T14:55:17;7.97;;;7.17;;
819;SDS011;392;48.838;2.322;2023-10-08T14:57:46;9.87;;;7.03;;
819;SDS011;392;48.838;2.322;2023-10-08T15:00:17;9.43;;;6.63;;
819;SDS011;392;48.838;2.322;2023-10-08T15:02:50;14.40;;;8.63;;
819;SDS011;392;48.838;2.322;2023-10-08T15:05:19;9.63;;;6.60;;
819;SDS011;392;48.838;2.322;2023-10-08T15:07:47;7.00;;;6.30;;
819;SDS011;392;48.838;2.322;2023-10-08T15:10:16;6.73;;;6.07;;
819;SDS011;392;48.838;2.322;2023-10-08T15:12:45;6.27;;;5.67;;
819;SDS011;392;48.838;2.322;2023-10-08T15:15:12;7.73;;;6.20;;
819;SDS011;392;48.838;2.322;2023-10-08T15:17:40;6.57;;;5.97;;
819;SDS011;392;48.838;2.322;2023-10-08T15:20:08;13.23;;;6.93;;
819;SDS011;392;48.838;2.322;2023-10-08T15:22:40;10.13;;;6.53;;
819;SDS011;392;48.838;2.322;2023-10-08T15:25:10;7.30;;;6.30;;
819;SDS011;392;48.838;2.322;2023-10-08T15:27:37;8.53;;;6.00;;
819;SDS011;392;48.838;2.322;2023-10-08T15:30:06;9.30;;;6.20;;
819;SDS011;392;48.838;2.322;2023-10-08T15:32:37;12.63;;;7.33;;
819;SDS011;392;48.838;2.322;2023-10-08T15:35:05;9.70;;;7.43;;
819;SDS011;392;48.838;2.322;2023-10-08T15:37:35;9.23;;;6.17;;
819;SDS011;392;48.838;2.322;2023-10-08T15:40:03;16.13;;;9.10;;
819;SDS011;392;48.838;2.322;2023-10-08T15:42:34;12.73;;;7.00;;
819;SDS011;392;48.838;2.322;2023-10-08T15:45:02;6.77;;;5.43;;
819;SDS011;392;48.838;2.322;2023-10-08T15:47:31;13.93;;;7.33;;
819;SDS011;392;48.838;2.322;2023-10-08T15:49:59;8.70;;;6.03;;
819;SDS011;392;48.838;2.322;2023-10-08T15:52:26;8.53;;;5.20;;
819;SDS011;392;48.838;2.322;2023-10-08T15:54:53;6.77;;;5.60;;
819;SDS011;392;48.838;2.322;2023-10-08T15:57:20;15.47;;;6.70;;
819;SDS011;392;48.838;2.322;2023-10-08T15:59:49;9.03;;;6.47;;